Time;durP1;ratioP1;P1;durP2;ratioP2;P2;SDS_P1;SDS_P2;PMS_P1;PMS_P2;Temp;Humidity;BMP_temperature;BMP_pressure;BME280_temperature;BME280_humidity;BME280_pressure;Samples;Min_cycle;Max_cycle;Signal;HPM_P1;HPM_P2
2021/07/09 00:02:32;;;;;;;23.17;20.90;;;;;;;;;;5033343;28;20530;-75
2021/07/09 00:04:59;;;;;;;23.40;21.00;;;;;;;;;;5033101;28;20421;-74
2021/07/09 00:07:25;;;;;;;23.93;20.33;;;;;;;;;;5032493;28;20421;-71
2021/07/09 00:09:51;;;;;;;22.97;20.57;;;;;;;;;;5032621;28;20813;-72
2021/07/09 00:12:17;;;;;;;22.20;20.03;;;;;;;;;;5032545;28;20985;-75
2021/07/09 00:14:43;;;;;;;20.67;18.60;;;;;;;;;;5032511;28;20473;-75
2021/07/09 00:17:09;;;;;;;21.00;19.10;;;;;;;;;;5031942;28;20725;-73
2021/07/09 00:19:35;;;;;;;20.00;18.17;;;;;;;;;;5032364;28;20436;-74
2021/07/09 00:22:03;;;;;;;19.93;18.03;;;;;;;;;;5032684;28;20840;-72
2021/07/09 00:24:29;;;;;;;19.17;17.37;;;;;;;;;;5032544;28;20920;-74
2021/07/09 00:26:55;;;;;;;19.20;17.40;;;;;;;;;;5033513;28;20774;-71
2021/07/09 00:29:22;;;;;;;18.13;16.37;;;;;;;;;;5035934;28;20424;-74
2021/07/09 00:31:48;;;;;;;18.47;16.67;;;;;;;;;;5035899;28;20455;-71
2021/07/09 00:34:15;;;;;;;17.20;15.60;;;;;;;;;;5036082;28;20408;-75
2021/07/09 00:36:41;;;;;;;18.30;16.50;;;;;;;;;;5035981;28;20751;-72
2021/07/09 00:39:08;;;;;;;18.23;16.47;;;;;;;;;;5036127;28;20431;-72
2021/07/09 00:41:35;;;;;;;15.90;14.40;;;;;;;;;;5036129;28;20913;-72
2021/07/09 00:44:01;;;;;;;16.93;15.30;;;;;;;;;;5036157;28;20466;-74
2021/07/09 00:46:38;;;;;;;16.53;14.87;;;;;;;;;;5035872;28;21259;-75
2021/07/09 00:49:05;;;;;;;16.03;14.33;;;;;;;;;;5035901;28;20412;-73
2021/07/09 00:51:31;;;;;;;16.17;14.50;;;;;;;;;;5035887;28;20991;-72
2021/07/09 00:53:57;;;;;;;14.83;13.60;;;;;;;;;;5035816;28;20412;-72
2021/07/09 00:56:24;;;;;;;16.43;14.83;;;;;;;;;;5035752;28;20417;-73
2021/07/09 00:58:51;;;;;;;15.03;13.63;;;;;;;;;;5035226;28;20420;-73
2021/07/09 01:01:17;;;;;;;16.53;14.90;;;;;;;;;;5035661;28;20516;-74
2021/07/09 01:03:43;;;;;;;14.83;13.53;;;;;;;;;;5035636;28;20424;-75
2021/07/09 01:06:09;;;;;;;15.37;14.00;;;;;;;;;;5035385;28;20417;-71
2021/07/09 01:08:35;;;;;;;14.80;13.50;;;;;;;;;;5035212;28;20440;-74
2021/07/09 01:11:01;;;;;;;15.90;14.50;;;;;;;;;;5035332;28;20440;-73
2021/07/09 01:13:28;;;;;;;14.47;13.17;;;;;;;;;;5035410;28;20495;-74
2021/07/09 01:15:54;;;;;;;14.10;12.90;;;;;;;;;;5035078;28;20420;-72
2021/07/09 01:18:20;;;;;;;14.17;12.97;;;;;;;;;;5034949;28;20470;-74
2021/07/09 01:20:46;;;;;;;13.63;12.33;;;;;;;;;;5035340;28;20431;-74
2021/07/09 01:23:13;;;;;;;14.37;13.07;;;;;;;;;;5035392;28;20858;-75
2021/07/09 01:25:39;;;;;;;13.40;12.27;;;;;;;;;;5035245;28;20479;-71
2021/07/09 01:28:06;;;;;;;14.27;12.87;;;;;;;;;;5034666;28;20420;-74
2021/07/09 01:30:33;;;;;;;13.80;11.80;;;;;;;;;;5035082;28;20443;-72
2021/07/09 01:32:59;;;;;;;13.93;12.53;;;;;;;;;;5035408;28;20471;-75
2021/07/09 01:35:26;;;;;;;16.43;13.33;;;;;;;;;;5035076;28;20447;-73
2021/07/09 01:38:10;;;;;;;14.40;13.10;;;;;;;;;;5034125;28;20520;-76
2021/07/09 01:40:37;;;;;;;14.20;12.90;;;;;;;;;;5035059;28;20893;-73
2021/07/09 01:43:04;;;;;;;14.10;12.80;;;;;;;;;;5034898;28;20723;-71
2021/07/09 01:45:30;;;;;;;13.33;12.13;;;;;;;;;;5034835;28;20445;-73
2021/07/09 01:47:56;;;;;;;13.63;12.43;;;;;;;;;;5034277;28;20419;-74
2021/07/09 01:50:23;;;;;;;14.03;12.73;;;;;;;;;;5034686;28;20439;-74
2021/07/09 01:52:49;;;;;;;13.57;12.20;;;;;;;;;;5034672;28;20467;-74
2021/07/09 01:55:15;;;;;;;14.83;12.83;;;;;;;;;;5034723;28;20405;-71
2021/07/09 01:57:42;;;;;;;13.60;12.50;;;;;;;;;;5034127;28;20769;-77
2021/07/09 02:00:35;;;;;;;14.90;13.50;;;;;;;;;;5034192;28;20464;-75
2021/07/09 02:03:02;;;;;;;14.20;12.90;;;;;;;;;;5031883;28;20789;-75
2021/07/09 02:05:28;;;;;;;14.03;12.70;;;;;;;;;;5034524;28;20412;-76
2021/07/09 02:07:55;;;;;;;15.03;13.30;;;;;;;;;;5034013;28;20412;-76
2021/07/09 02:10:22;;;;;;;14.43;13.20;;;;;;;;;;5034011;28;20463;-70
2021/07/09 02:12:54;;;;;;;14.90;13.50;;;;;;;;;;5034224;28;21031;-72
2021/07/09 02:15:22;;;;;;;13.80;12.60;;;;;;;;;;5034355;28;20436;-76
2021/07/09 02:17:48;;;;;;;15.40;14.00;;;;;;;;;;5033618;28;20419;-70
2021/07/09 02:20:16;;;;;;;14.33;13.03;;;;;;;;;;5033927;28;20436;-76
2021/07/09 02:22:42;;;;;;;14.60;13.20;;;;;;;;;;5034286;28;20415;-76
2021/07/09 02:25:09;;;;;;;14.60;13.20;;;;;;;;;;5034067;28;20435;-74
2021/07/09 02:27:38;;;;;;;15.00;13.67;;;;;;;;;;5033720;28;20420;-74
2021/07/09 02:30:08;;;;;;;14.07;12.77;;;;;;;;;;5034167;28;20464;-71
2021/07/09 02:32:34;;;;;;;14.07;12.70;;;;;;;;;;5033592;28;20558;-72
2021/07/09 02:35:00;;;;;;;15.30;13.70;;;;;;;;;;5034078;28;20770;-74
2021/07/09 02:37:26;;;;;;;14.90;13.60;;;;;;;;;;5033439;28;20769;-74
2021/07/09 02:39:52;;;;;;;14.50;13.30;;;;;;;;;;5033771;28;20428;-74
2021/07/09 02:42:18;;;;;;;14.50;13.20;;;;;;;;;;5033766;28;20413;-71
2021/07/09 02:44:44;;;;;;;16.13;13.17;;;;;;;;;;5033747;28;20417;-73
2021/07/09 02:47:11;;;;;;;13.93;12.67;;;;;;;;;;5032224;28;20909;-73
2021/07/09 02:49:38;;;;;;;14.63;13.23;;;;;;;;;;5033274;28;20441;-75
2021/07/09 02:52:04;;;;;;;13.93;12.73;;;;;;;;;;5033261;28;20479;-72
2021/07/09 02:54:30;;;;;;;13.53;12.40;;;;;;;;;;5033425;28;20520;-74
2021/07/09 02:56:56;;;;;;;14.57;13.07;;;;;;;;;;5032924;28;20547;-74
2021/07/09 02:59:22;;;;;;;13.37;12.27;;;;;;;;;;5033564;28;20527;-74
2021/07/09 03:01:48;;;;;;;12.67;11.57;;;;;;;;;;5033257;28;20417;-71
2021/07/09 03:04:14;;;;;;;12.00;10.80;;;;;;;;;;5033505;28;20419;-75
2021/07/09 03:06:41;;;;;;;12.30;11.30;;;;;;;;;;5032861;28;20424;-72
2021/07/09 03:09:08;;;;;;;11.33;10.40;;;;;;;;;;5033337;28;20466;-74
2021/07/09 03:11:34;;;;;;;10.70;9.30;;;;;;;;;;5033209;28;20440;-75
2021/07/09 03:14:01;;;;;;;11.47;10.57;;;;;;;;;;5033237;28;20405;-74
2021/07/09 03:16:27;;;;;;;9.87;9.07;;;;;;;;;;5032972;28;20443;-73
2021/07/09 03:18:53;;;;;;;9.60;8.90;;;;;;;;;;5032923;28;20409;-74
2021/07/09 03:21:19;;;;;;;10.63;9.83;;;;;;;;;;5033250;28;20447;-72
2021/07/09 03:23:45;;;;;;;10.17;9.27;;;;;;;;;;5033381;28;20470;-74
2021/07/09 03:26:11;;;;;;;10.00;9.10;;;;;;;;;;5033197;28;20416;-73
2021/07/09 03:28:37;;;;;;;10.17;9.33;;;;;;;;;;5032855;28;20435;-73
2021/07/09 03:31:03;;;;;;;11.33;9.90;;;;;;;;;;5032715;28;20444;-73
2021/07/09 03:33:30;;;;;;;9.80;8.90;;;;;;;;;;5033401;28;20460;-71
2021/07/09 03:35:56;;;;;;;11.10;10.10;;;;;;;;;;5033100;28;20411;-74
2021/07/09 03:38:22;;;;;;;10.50;9.80;;;;;;;;;;5032869;28;20417;-71
2021/07/09 03:40:48;;;;;;;10.73;9.83;;;;;;;;;;5032925;28;20478;-74
2021/07/09 03:43:14;;;;;;;10.43;9.53;;;;;;;;;;5032790;28;20422;-75
2021/07/09 03:45:40;;;;;;;10.70;9.90;;;;;;;;;;5032862;28;20412;-74
2021/07/09 03:48:07;;;;;;;10.57;9.67;;;;;;;;;;5032752;28;20770;-72
2021/07/09 03:50:33;;;;;;;10.17;9.27;;;;;;;;;;5032974;28;20911;-74
2021/07/09 03:52:59;;;;;;;9.67;8.77;;;;;;;;;;5032865;28;20510;-71
2021/07/09 03:55:25;;;;;;;11.33;10.40;;;;;;;;;;5033159;28;20463;-74
2021/07/09 03:57:51;;;;;;;10.20;9.40;;;;;;;;;;5032235;28;20901;-72
2021/07/09 04:00:18;;;;;;;11.00;10.00;;;;;;;;;;5032749;28;20506;-73
2021/07/09 04:02:44;;;;;;;11.47;10.57;;;;;;;;;;5035692;28;20801;-74
2021/07/09 04:05:11;;;;;;;11.43;10.47;;;;;;;;;;5036706;28;20427;-74
2021/07/09 04:07:39;;;;;;;11.87;10.77;;;;;;;;;;5036284;28;20469;-72
2021/07/09 04:10:05;;;;;;;11.30;10.20;;;;;;;;;;5026287;28;20781;-72
2021/07/09 04:12:31;;;;;;;10.40;9.47;;;;;;;;;;5036489;28;20467;-75
2021/07/09 04:14:57;;;;;;;11.10;10.10;;;;;;;;;;5037042;28;20451;-74
2021/07/09 04:17:23;;;;;;;11.03;10.13;;;;;;;;;;5035883;28;20515;-71
2021/07/09 04:19:51;;;;;;;11.83;10.73;;;;;;;;;;5036452;28;20467;-72
2021/07/09 04:22:17;;;;;;;10.63;9.67;;;;;;;;;;5036276;28;20431;-72
2021/07/09 04:24:43;;;;;;;10.50;9.60;;;;;;;;;;5036475;28;20424;-74
2021/07/09 04:27:09;;;;;;;10.80;9.90;;;;;;;;;;5035705;28;20417;-73
2021/07/09 04:29:35;;;;;;;11.10;10.10;;;;;;;;;;5036415;28;20506;-75
2021/07/09 04:32:01;;;;;;;11.40;10.40;;;;;;;;;;5035993;28;20464;-72
2021/07/09 04:34:27;;;;;;;11.73;10.67;;;;;;;;;;5036203;28;20412;-73
2021/07/09 04:36:53;;;;;;;11.00;9.93;;;;;;;;;;5035681;28;20829;-74
2021/07/09 04:39:19;;;;;;;10.97;9.97;;;;;;;;;;5036073;28;20429;-72
2021/07/09 04:41:45;;;;;;;13.50;12.40;;;;;;;;;;5036037;28;20420;-74
2021/07/09 04:44:11;;;;;;;13.87;12.40;;;;;;;;;;5035807;28;20431;-72
2021/07/09 04:46:37;;;;;;;12.50;10.97;;;;;;;;;;5035389;28;20418;-72
2021/07/09 04:49:03;;;;;;;12.83;11.60;;;;;;;;;;5036253;28;20404;-73
2021/07/09 04:51:29;;;;;;;12.75;11.55;;;;;;;;;;5035491;28;20447;-73
2021/07/09 04:53:55;;;;;;;12.50;11.43;;;;;;;;;;5035709;28;20946;-72
2021/07/09 04:56:21;;;;;;;12.60;11.60;;;;;;;;;;5035465;28;20424;-74
2021/07/09 04:58:47;;;;;;;12.07;10.77;;;;;;;;;;5035038;28;20836;-73
2021/07/09 05:01:15;;;;;;;11.87;10.77;;;;;;;;;;5035473;28;20531;-74
2021/07/09 05:03:41;;;;;;;13.50;12.10;;;;;;;;;;5035656;28;20432;-74
2021/07/09 05:06:07;;;;;;;12.33;11.10;;;;;;;;;;5035884;28;20420;-74
2021/07/09 05:08:33;;;;;;;11.47;10.47;;;;;;;;;;5035063;28;20417;-72
2021/07/09 05:10:59;;;;;;;12.67;11.47;;;;;;;;;;5035206;28;20437;-71
2021/07/09 05:13:25;;;;;;;11.23;10.10;;;;;;;;;;5034450;28;20467;-73
2021/07/09 05:15:51;;;;;;;11.40;10.30;;;;;;;;;;5035227;28;20885;-73
2021/07/09 05:18:17;;;;;;;13.30;11.90;;;;;;;;;;5034798;28;20905;-72
2021/07/09 05:20:43;;;;;;;12.93;11.73;;;;;;;;;;5035049;28;20441;-73
2021/07/09 05:23:09;;;;;;;14.30;12.90;;;;;;;;;;5035136;28;20424;-74
2021/07/09 05:25:35;;;;;;;15.10;13.43;;;;;;;;;;5034875;28;20422;-72
2021/07/09 05:28:01;;;;;;;15.20;13.70;;;;;;;;;;5034521;28;20507;-72
2021/07/09 05:30:27;;;;;;;13.17;11.73;;;;;;;;;;5035114;28;20513;-73
2021/07/09 05:32:55;;;;;;;12.87;11.70;;;;;;;;;;5035013;28;20473;-71
2021/07/09 05:35:21;;;;;;;11.80;10.80;;;;;;;;;;5035031;28;20422;-73
2021/07/09 05:37:47;;;;;;;13.73;12.07;;;;;;;;;;5034513;28;20472;-74
2021/07/09 05:40:13;;;;;;;12.13;11.03;;;;;;;;;;5034899;28;21095;-72
2021/07/09 05:42:39;;;;;;;11.20;10.30;;;;;;;;;;5034752;28;20497;-74
2021/07/09 05:45:05;;;;;;;11.83;10.73;;;;;;;;;;5034924;28;20413;-72
2021/07/09 05:47:32;;;;;;;11.80;10.63;;;;;;;;;;5034550;28;20427;-73
2021/07/09 05:49:58;;;;;;;11.83;10.73;;;;;;;;;;5034173;28;20448;-72
2021/07/09 05:52:24;;;;;;;12.30;11.10;;;;;;;;;;5034508;28;20964;-72
2021/07/09 05:54:50;;;;;;;15.20;11.27;;;;;;;;;;5034701;28;20412;-70
2021/07/09 05:57:16;;;;;;;11.90;10.80;;;;;;;;;;5034496;28;20412;-73
2021/07/09 05:59:42;;;;;;;12.97;11.87;;;;;;;;;;5032404;28;20928;-75
2021/07/09 06:02:08;;;;;;;14.13;10.40;;;;;;;;;;5034371;28;20412;-74
2021/07/09 06:04:34;;;;;;;11.47;10.47;;;;;;;;;;5034364;28;20421;-70
2021/07/09 06:07:00;;;;;;;10.80;10.00;;;;;;;;;;5033503;28;20421;-72
2021/07/09 06:09:26;;;;;;;11.60;10.50;;;;;;;;;;5034107;28;20420;-70
2021/07/09 06:11:52;;;;;;;14.70;10.60;;;;;;;;;;5029649;28;20464;-76
2021/07/09 06:14:18;;;;;;;11.50;10.40;;;;;;;;;;5030345;28;20416;-71
2021/07/09 06:16:46;;;;;;;11.03;10.03;;;;;;;;;;5026508;28;20512;-70
2021/07/09 06:19:12;;;;;;;10.80;9.90;;;;;;;;;;5029507;28;20426;-73
2021/07/09 06:21:38;;;;;;;12.40;10.30;;;;;;;;;;5028021;28;20536;-72
2021/07/09 06:24:04;;;;;;;10.60;9.60;;;;;;;;;;5029931;28;20424;-75
2021/07/09 06:26:30;;;;;;;11.13;10.00;;;;;;;;;;5029613;28;20500;-75
2021/07/09 06:28:56;;;;;;;10.77;9.90;;;;;;;;;;5029600;28;20546;-74
2021/07/09 06:31:22;;;;;;;10.87;9.87;;;;;;;;;;5030079;28;20482;-70
2021/07/09 06:33:49;;;;;;;10.30;9.37;;;;;;;;;;5030009;28;20537;-73
2021/07/09 06:36:14;;;;;;;9.53;8.73;;;;;;;;;;5029850;28;20420;-73
2021/07/09 06:38:40;;;;;;;9.63;8.93;;;;;;;;;;5029655;28;20420;-74
2021/07/09 06:41:06;;;;;;;8.20;7.47;;;;;;;;;;5027373;28;20921;-77
2021/07/09 06:43:32;;;;;;;8.00;7.27;;;;;;;;;;5029925;28;20495;-72
2021/07/09 06:45:58;;;;;;;8.87;8.00;;;;;;;;;;5028640;28;20459;-72
2021/07/09 06:48:24;;;;;;;8.47;7.77;;;;;;;;;;5029349;28;20417;-71
2021/07/09 06:50:50;;;;;;;8.20;7.50;;;;;;;;;;5029679;28;21177;-71
2021/07/09 06:53:16;;;;;;;8.40;7.50;;;;;;;;;;5029645;28;20515;-70
2021/07/09 06:55:43;;;;;;;8.33;7.53;;;;;;;;;;5029758;28;20826;-73
2021/07/09 06:58:09;;;;;;;8.33;7.57;;;;;;;;;;5029347;28;20777;-73
2021/07/09 07:00:35;;;;;;;18.70;16.97;;;;;;;;;;5029572;28;20458;-75
2021/07/09 07:03:01;;;;;;;9.20;8.30;;;;;;;;;;5029756;28;20833;-74
2021/07/09 07:05:27;;;;;;;8.60;7.90;;;;;;;;;;5029613;28;20427;-72
2021/07/09 07:07:53;;;;;;;8.30;6.80;;;;;;;;;;5029297;28;20807;-73
2021/07/09 07:10:19;;;;;;;9.73;8.13;;;;;;;;;;5029475;28;20487;-72
2021/07/09 07:12:47;;;;;;;8.30;7.60;;;;;;;;;;5029213;28;20464;-76
2021/07/09 07:15:14;;;;;;;8.00;7.40;;;;;;;;;;5029765;28;20404;-74
2021/07/09 07:17:40;;;;;;;8.53;7.50;;;;;;;;;;5029225;28;20417;-73
2021/07/09 07:20:06;;;;;;;9.50;8.80;;;;;;;;;;5029381;28;20443;-72
2021/07/09 07:22:32;;;;;;;8.20;7.60;;;;;;;;;;5029703;28;20417;-75
2021/07/09 07:24:58;;;;;;;8.30;7.67;;;;;;;;;;5028946;28;20455;-73
2021/07/09 07:27:27;;;;;;;9.23;8.43;;;;;;;;;;5028927;28;20451;-71
2021/07/09 07:29:55;;;;;;;9.20;8.37;;;;;;;;;;5029092;28;20445;-74
2021/07/09 07:32:21;;;;;;;10.90;9.47;;;;;;;;;;5029080;28;20460;-73
2021/07/09 07:34:47;;;;;;;9.27;8.57;;;;;;;;;;5029157;28;20424;-72
2021/07/09 07:37:13;;;;;;;8.60;8.00;;;;;;;;;;5025762;28;20424;-75
2021/07/09 07:39:39;;;;;;;9.00;8.27;;;;;;;;;;5035769;28;20447;-75
2021/07/09 07:42:05;;;;;;;9.77;8.60;;;;;;;;;;5035844;28;20848;-76
2021/07/09 07:44:31;;;;;;;9.00;8.30;;;;;;;;;;5035860;28;20428;-73
2021/07/09 07:46:57;;;;;;;8.13;7.33;;;;;;;;;;5034511;28;20436;-73
2021/07/09 07:49:23;;;;;;;8.70;7.80;;;;;;;;;;5035617;28;20424;-74
2021/07/09 07:51:53;;;;;;;9.90;8.47;;;;;;;;;;5034175;28;20475;-71
2021/07/09 07:54:19;;;;;;;9.37;8.57;;;;;;;;;;5035629;28;20801;-71
2021/07/09 07:56:45;;;;;;;10.50;8.90;;;;;;;;;;5035348;28;20420;-71
2021/07/09 07:59:11;;;;;;;8.93;8.23;;;;;;;;;;5035466;28;21160;-71
2021/07/09 08:01:38;;;;;;;9.00;8.10;;;;;;;;;;5035785;28;20525;-73
2021/07/09 08:04:04;;;;;;;8.77;8.17;;;;;;;;;;5035673;28;20781;-72
2021/07/09 08:06:31;;;;;;;8.40;7.60;;;;;;;;;;5035582;28;20412;-74
2021/07/09 08:08:57;;;;;;;8.63;7.83;;;;;;;;;;5035277;28;20425;-71
2021/07/09 08:11:23;;;;;;;8.33;7.73;;;;;;;;;;5035194;28;20436;-74
2021/07/09 08:13:49;;;;;;;8.67;7.97;;;;;;;;;;5035407;28;20468;-75
2021/07/09 08:16:15;;;;;;;9.73;8.13;;;;;;;;;;5035350;28;20416;-73
2021/07/09 08:18:42;;;;;;;8.47;7.57;;;;;;;;;;5035313;28;20412;-74
2021/07/09 08:21:08;;;;;;;9.33;7.77;;;;;;;;;;5035288;28;20444;-72
2021/07/09 08:23:34;;;;;;;11.50;10.37;;;;;;;;;;5035716;28;20435;-72
2021/07/09 08:26:00;;;;;;;17.73;16.10;;;;;;;;;;5035613;28;20466;-74
2021/07/09 08:28:26;;;;;;;7.73;7.10;;;;;;;;;;5034445;28;20523;-72
2021/07/09 08:30:52;;;;;;;6.77;6.27;;;;;;;;;;5035091;28;20797;-73
2021/07/09 08:33:19;;;;;;;6.40;5.90;;;;;;;;;;5035209;28;20467;-73
2021/07/09 08:35:45;;;;;;;7.40;6.83;;;;;;;;;;5035612;28;20430;-72
2021/07/09 08:38:11;;;;;;;8.00;6.90;;;;;;;;;;5035064;28;20415;-75
2021/07/09 08:40:37;;;;;;;6.77;6.20;;;;;;;;;;5035185;28;20489;-73
2021/07/09 08:43:04;;;;;;;6.97;6.30;;;;;;;;;;5035115;28;20746;-70
2021/07/09 08:45:30;;;;;;;6.87;6.17;;;;;;;;;;5035084;28;20424;-75
2021/07/09 08:47:56;;;;;;;6.20;5.80;;;;;;;;;;5033653;28;21169;-72
2021/07/09 08:50:22;;;;;;;7.97;5.50;;;;;;;;;;5032083;28;20475;-74
2021/07/09 08:52:48;;;;;;;6.87;6.37;;;;;;;;;;5031869;28;20460;-73
2021/07/09 08:55:16;;;;;;;5.83;5.33;;;;;;;;;;5031609;28;20416;-75
2021/07/09 08:57:43;;;;;;;5.80;5.30;;;;;;;;;;5031693;28;20413;-72
2021/07/09 09:00:22;;;;;;;5.33;4.93;;;;;;;;;;5031497;28;20550;-75
2021/07/09 09:02:49;;;;;;;6.10;5.60;;;;;;;;;;5031352;28;20946;-71
2021/07/09 09:05:25;;;;;;;4.67;4.27;;;;;;;;;;5031146;28;20904;-73
2021/07/09 09:08:00;;;;;;;5.97;5.30;;;;;;;;;;5031323;28;20423;-72
2021/07/09 09:10:33;;;;;;;5.93;5.43;;;;;;;;;;5031217;28;20443;-73
2021/07/09 09:13:16;;;;;;;5.47;5.07;;;;;;;;;;5031353;28;20542;-73
2021/07/09 09:15:44;;;;;;;5.67;5.37;;;;;;;;;;5030760;28;20994;-72
2021/07/09 09:18:20;;;;;;;5.37;4.87;;;;;;;;;;5031096;28;20412;-72
2021/07/09 09:20:54;;;;;;;4.70;4.40;;;;;;;;;;5030994;28;20466;-75
2021/07/09 09:23:20;;;;;;;5.80;5.30;;;;;;;;;;5031238;28;20413;-71
2021/07/09 09:25:46;;;;;;;5.00;4.67;;;;;;;;;;5031400;28;20432;-75
2021/07/09 09:28:12;;;;;;;5.43;4.93;;;;;;;;;;5031028;28;20781;-73
2021/07/09 09:30:40;;;;;;;4.63;4.23;;;;;;;;;;5031264;28;20535;-71
2021/07/09 09:33:08;;;;;;;4.70;4.30;;;;;;;;;;5031033;28;20456;-74
2021/07/09 09:35:38;;;;;;;4.93;4.57;;;;;;;;;;5031262;28;20514;-72
2021/07/09 09:38:14;;;;;;;4.53;4.23;;;;;;;;;;5031021;28;20503;-75
2021/07/09 09:40:42;;;;;;;5.40;4.70;;;;;;;;;;5031054;28;20514;-73
2021/07/09 09:43:10;;;;;;;5.37;4.90;;;;;;;;;;5031092;28;20496;-73
2021/07/09 09:45:36;;;;;;;5.83;5.33;;;;;;;;;;5030911;28;20471;-72
2021/07/09 09:48:06;;;;;;;5.43;4.93;;;;;;;;;;5030579;28;20426;-73
2021/07/09 09:50:40;;;;;;;5.37;4.80;;;;;;;;;;5031080;28;20462;-74
2021/07/09 09:53:06;;;;;;;5.30;4.90;;;;;;;;;;5030199;28;20476;-72
2021/07/09 09:55:33;;;;;;;5.70;5.20;;;;;;;;;;5030583;28;20424;-70
2021/07/09 09:58:13;;;;;;;6.07;5.57;;;;;;;;;;5030551;28;20835;-72
2021/07/09 10:00:39;;;;;;;8.13;7.33;;;;;;;;;;5029927;28;20538;-73
2021/07/09 10:03:06;;;;;;;10.10;9.20;;;;;;;;;;5029907;28;20432;-73
2021/07/09 10:05:42;;;;;;;7.23;6.53;;;;;;;;;;5030680;28;20425;-73
2021/07/09 10:08:12;;;;;;;23.97;21.30;;;;;;;;;;5030329;28;20419;-72
2021/07/09 10:10:39;;;;;;;6.13;5.70;;;;;;;;;;5030189;28;20445;-73
2021/07/09 10:13:05;;;;;;;6.37;5.87;;;;;;;;;;5028831;28;20468;-73
2021/07/09 10:15:32;;;;;;;5.87;5.37;;;;;;;;;;5030814;28;20444;-72
2021/07/09 10:17:58;;;;;;;6.90;6.10;;;;;;;;;;5030204;28;20502;-73
2021/07/09 10:20:25;;;;;;;6.60;6.00;;;;;;;;;;5018679;28;20428;-71
2021/07/09 10:22:51;;;;;;;6.40;5.80;;;;;;;;;;5029465;28;20416;-70
2021/07/09 10:25:18;;;;;;;6.77;6.27;;;;;;;;;;5030507;28;20451;-73
2021/07/09 10:27:44;;;;;;;6.63;5.57;;;;;;;;;;5029957;28;20419;-72
2021/07/09 10:30:11;;;;;;;5.83;5.40;;;;;;;;;;5030388;28;20511;-73
2021/07/09 10:32:38;;;;;;;5.70;5.23;;;;;;;;;;5029506;28;20461;-73
2021/07/09 10:35:05;;;;;;;5.70;5.20;;;;;;;;;;5030053;28;20419;-71
2021/07/09 10:37:31;;;;;;;6.20;5.70;;;;;;;;;;5029742;28;20448;-72
2021/07/09 10:40:03;;;;;;;7.10;6.50;;;;;;;;;;5030011;28;20443;-71
2021/07/09 10:42:31;;;;;;;7.10;6.50;;;;;;;;;;5030023;28;20761;-72
2021/07/09 10:44:58;;;;;;;7.10;5.90;;;;;;;;;;5029809;28;20413;-72
2021/07/09 10:47:24;;;;;;;5.83;5.43;;;;;;;;;;5029532;28;20523;-71
2021/07/09 10:49:50;;;;;;;5.40;5.00;;;;;;;;;;5029479;28;20866;-72
2021/07/09 10:52:36;;;;;;;5.60;5.10;;;;;;;;;;5029712;28;20520;-72
2021/07/09 10:55:22;;;;;;;5.40;5.00;;;;;;;;;;5028201;28;20458;-71
2021/07/09 10:58:06;;;;;;;5.33;5.00;;;;;;;;;;5022190;28;20825;-73
2021/07/09 11:00:45;;;;;;;6.30;5.70;;;;;;;;;;5029638;28;20463;-74
2021/07/09 11:03:11;;;;;;;5.97;5.47;;;;;;;;;;5029690;28;20428;-76
2021/07/09 11:05:43;;;;;;;5.43;5.03;;;;;;;;;;5029622;28;20420;-72
2021/07/09 11:08:28;;;;;;;5.57;5.20;;;;;;;;;;5029369;28;20808;-73
2021/07/09 11:10:58;;;;;;;7.43;5.43;;;;;;;;;;5028317;28;20945;-72
2021/07/09 11:13:42;;;;;;;5.80;5.30;;;;;;;;;;5026150;28;20531;-73
2021/07/09 11:16:25;;;;;;;5.53;5.13;;;;;;;;;;5029733;28;20412;-72
2021/07/09 11:18:56;;;;;;;6.00;5.50;;;;;;;;;;5028607;28;20458;-74
2021/07/09 11:21:31;;;;;;;6.07;5.57;;;;;;;;;;5029388;28;20448;-74
2021/07/09 11:23:57;;;;;;;6.43;6.03;;;;;;;;;;5029457;28;20817;-76
2021/07/09 11:26:23;;;;;;;6.00;5.50;;;;;;;;;;5028733;28;20427;-75
2021/07/09 11:28:49;;;;;;;6.30;5.80;;;;;;;;;;5029019;28;20456;-72
2021/07/09 11:31:35;;;;;;;6.30;5.87;;;;;;;;;;5029205;28;20439;-75
2021/07/09 11:34:03;;;;;;;6.37;5.77;;;;;;;;;;5017761;28;20988;-70
2021/07/09 11:36:39;;;;;;;6.60;6.00;;;;;;;;;;5029474;28;20417;-75
2021/07/09 11:39:25;;;;;;;6.27;5.53;;;;;;;;;;5029144;28;20510;-73
2021/07/09 11:42:05;;;;;;;6.47;5.87;;;;;;;;;;5029267;28;20412;-75
2021/07/09 11:44:33;;;;;;;6.77;6.17;;;;;;;;;;5028964;28;20420;-71
2021/07/09 11:47:06;;;;;;;6.73;6.13;;;;;;;;;;5028806;28;20469;-72
2021/07/09 11:49:36;;;;;;;5.77;5.37;;;;;;;;;;5028662;28;20416;-74
2021/07/09 11:52:06;;;;;;;6.03;5.63;;;;;;;;;;5029470;28;20416;-74
2021/07/09 11:54:45;;;;;;;7.43;6.60;;;;;;;;;;5029240;28;20770;-76
2021/07/09 11:57:13;;;;;;;7.00;6.40;;;;;;;;;;5027944;28;20419;-73
2021/07/09 11:59:40;;;;;;;6.50;6.00;;;;;;;;;;5029167;28;20448;-69
2021/07/09 12:02:25;;;;;;;6.10;5.70;;;;;;;;;;5029081;28;20441;-71
2021/07/09 12:05:01;;;;;;;7.10;6.50;;;;;;;;;;5029001;28;20420;-72
2021/07/09 12:07:27;;;;;;;7.30;6.73;;;;;;;;;;5028529;28;20769;-71
2021/07/09 12:09:56;;;;;;;7.17;6.47;;;;;;;;;;5028778;28;20928;-72
2021/07/09 12:12:23;;;;;;;7.17;6.30;;;;;;;;;;5013941;28;20468;-72
2021/07/09 12:14:58;;;;;;;7.33;6.53;;;;;;;;;;5024853;28;20532;-73
2021/07/09 12:17:25;;;;;;;6.97;6.37;;;;;;;;;;5028435;28;20436;-73
2021/07/09 12:19:52;;;;;;;7.30;6.70;;;;;;;;;;5028774;28;20448;-70
2021/07/09 12:22:25;;;;;;;7.77;7.07;;;;;;;;;;5029425;28;20456;-74
2021/07/09 12:24:52;;;;;;;7.90;7.20;;;;;;;;;;5031800;28;20485;-73
2021/07/09 12:27:18;;;;;;;7.13;6.53;;;;;;;;;;5032103;28;20765;-73
2021/07/09 12:29:44;;;;;;;8.37;7.77;;;;;;;;;;5032325;28;20444;-74
2021/07/09 12:32:10;;;;;;;7.60;6.97;;;;;;;;;;5032539;28;20455;-74
2021/07/09 12:34:36;;;;;;;7.43;6.93;;;;;;;;;;5032082;28;20724;-70
2021/07/09 12:37:05;;;;;;;7.30;6.80;;;;;;;;;;5031980;28;20416;-74
2021/07/09 12:39:31;;;;;;;7.80;7.20;;;;;;;;;;5032418;28;20499;-75
2021/07/09 12:42:09;;;;;;;8.20;7.50;;;;;;;;;;5032385;28;20412;-72
2021/07/09 12:44:35;;;;;;;7.53;6.73;;;;;;;;;;5019787;28;20490;-72
2021/07/09 12:47:01;;;;;;;9.10;8.20;;;;;;;;;;5031571;28;20427;-73
2021/07/09 12:49:27;;;;;;;7.73;7.13;;;;;;;;;;5031938;28;20418;-72
2021/07/09 12:51:53;;;;;;;9.90;9.10;;;;;;;;;;5031890;28;20423;-75
2021/07/09 12:54:20;;;;;;;14.80;13.53;;;;;;;;;;5032048;28;20409;-73
2021/07/09 12:56:50;;;;;;;8.43;7.70;;;;;;;;;;5031383;28;20439;-74
2021/07/09 12:59:20;;;;;;;8.30;7.63;;;;;;;;;;5031095;28;20437;-72
2021/07/09 13:01:46;;;;;;;8.23;7.50;;;;;;;;;;5031879;28;20405;-73
2021/07/09 13:04:20;;;;;;;7.50;7.00;;;;;;;;;;5032109;28;20425;-71
2021/07/09 13:06:46;;;;;;;8.90;8.13;;;;;;;;;;5031651;28;20423;-74
2021/07/09 13:09:19;;;;;;;8.30;7.60;;;;;;;;;;5031370;28;20425;-74
2021/07/09 13:11:46;;;;;;;9.10;8.40;;;;;;;;;;5029692;28;20413;-74
2021/07/09 13:14:24;;;;;;;9.77;8.97;;;;;;;;;;5031795;28;20472;-74
2021/07/09 13:16:51;;;;;;;9.37;8.57;;;;;;;;;;5030000;28;20463;-73
2021/07/09 13:19:28;;;;;;;10.20;9.17;;;;;;;;;;5031449;28;20417;-76
2021/07/09 13:21:55;;;;;;;11.10;9.70;;;;;;;;;;5031651;28;20424;-72
2021/07/09 13:24:21;;;;;;;9.73;8.93;;;;;;;;;;5031543;28;20765;-74
2021/07/09 13:26:49;;;;;;;11.33;10.33;;;;;;;;;;5030901;28;20547;-73
2021/07/09 13:29:16;;;;;;;9.33;8.63;;;;;;;;;;5026883;28;20474;-72
2021/07/09 13:31:45;;;;;;;10.80;9.80;;;;;;;;;;5031442;28;20428;-71
2021/07/09 13:34:11;;;;;;;9.90;9.10;;;;;;;;;;5030321;28;20938;-72
2021/07/09 13:36:38;;;;;;;10.70;9.70;;;;;;;;;;5030965;28;20521;-74
2021/07/09 13:39:04;;;;;;;10.80;9.80;;;;;;;;;;5030666;28;20448;-75
2021/07/09 13:41:30;;;;;;;11.33;10.43;;;;;;;;;;5030996;28;20444;-71
2021/07/09 13:43:57;;;;;;;8.87;8.20;;;;;;;;;;5030951;28;20443;-70
2021/07/09 13:46:23;;;;;;;12.63;11.33;;;;;;;;;;5030594;28;20421;-72
2021/07/09 13:48:49;;;;;;;12.10;11.10;;;;;;;;;;5030581;28;20427;-73
2021/07/09 13:51:15;;;;;;;13.73;12.53;;;;;;;;;;5030637;28;20864;-75
2021/07/09 13:53:42;;;;;;;14.20;12.90;;;;;;;;;;5030742;28;20460;-71
2021/07/09 13:56:08;;;;;;;47.63;37.40;;;;;;;;;;5030648;28;20479;-72
2021/07/09 13:58:34;;;;;;;15.97;14.37;;;;;;;;;;5030299;28;20413;-74
2021/07/09 14:01:01;;;;;;;15.20;13.90;;;;;;;;;;5029578;28;20801;-73
2021/07/09 14:03:27;;;;;;;13.27;12.17;;;;;;;;;;5030415;28;20474;-74
2021/07/09 14:05:54;;;;;;;12.90;11.70;;;;;;;;;;5030450;28;20659;-72
2021/07/09 14:08:21;;;;;;;13.27;11.97;;;;;;;;;;5029621;28;20428;-74
2021/07/09 14:10:49;;;;;;;11.67;10.50;;;;;;;;;;5030409;28;20494;-74
2021/07/09 14:13:16;;;;;;;11.33;10.27;;;;;;;;;;5030234;28;20464;-72
2021/07/09 14:15:42;;;;;;;10.40;9.50;;;;;;;;;;5030601;28;20427;-75
2021/07/09 14:18:08;;;;;;;12.23;9.90;;;;;;;;;;5029758;28;20826;-75
2021/07/09 14:20:34;;;;;;;9.30;8.50;;;;;;;;;;5030384;28;20519;-73
2021/07/09 14:23:00;;;;;;;10.70;9.47;;;;;;;;;;5017280;28;21037;-70
2021/07/09 14:25:26;;;;;;;9.53;8.63;;;;;;;;;;5030465;28;20420;-74
2021/07/09 14:27:53;;;;;;;10.30;9.40;;;;;;;;;;5029753;28;20416;-70
2021/07/09 14:30:19;;;;;;;12.67;10.23;;;;;;;;;;5030403;28;20440;-71
2021/07/09 14:32:46;;;;;;;58.73;45.43;;;;;;;;;;5030303;28;20463;-72
2021/07/09 14:35:13;;;;;;;26.90;20.73;;;;;;;;;;5029869;28;20818;-72